Airport ID:K2O1
Update Time (UTC):19/06/2019 14:57
Wind Speed (Knots):1
Wind Direction (Magnetic):100
Temperature (°C):15
Dew Point (°C):11
Humidity (%):78
Altimeter (inHg):30.11
Density Altitude (Feet):
Visibility (Miles):1/2
Clouds (Hundreds of feet):***
Present Weather:HZ
METAR:METAR K2O1 191455Z AUTO 00000KT 1/2SM HZ 14/11 A3011 RMK A01

The data displayed is for advisory purposes only and is not to be used for flight planning or operations.

This page is not automatically refreshed. Reload the page to see current data.